Time;durP1;ratioP1;P1;durP2;ratioP2;P2;SDS_P1;SDS_P2;PMS_P1;PMS_P2;Temp;Humidity;BMP_temperature;BMP_pressure;BME280_temperature;BME280_humidity;BME280_pressure;Samples;Min_cycle;Max_cycle;Signal;HPM_P1;HPM_P2
2022/08/17 00:02:18;;;;;;;;;15.00;15.00;;;;;;;;5101846;27;62111;-78
2022/08/17 00:04:44;;;;;;;;;24.00;16.50;;;;;;;;5101832;27;61821;-78
2022/08/17 00:07:09;;;;;;;;;12.75;11.25;;;;;;;;5102359;27;62014;-78
2022/08/17 00:09:35;;;;;;;;;17.25;14.50;;;;;;;;5101214;27;62012;-78
2022/08/17 00:12:01;;;;;;;;;15.75;12.25;;;;;;;;5101378;27;61890;-78
2022/08/17 00:14:26;;;;;;;;;12.50;12.50;;;;;;;;5102214;27;61843;-78
2022/08/17 00:16:52;;;;;;;;;17.25;15.75;;;;;;;;5102556;27;61931;-78
2022/08/17 00:19:21;;;;;;;;;15.50;11.75;;;;;;;;5102509;27;61799;-78
2022/08/17 00:21:46;;;;;;;;;15.50;13.25;;;;;;;;5104706;27;61646;-78
2022/08/17 00:24:13;;;;;;;;;14.00;12.00;;;;;;;;5104727;27;61995;-78
2022/08/17 00:26:39;;;;;;;;;14.50;12.25;;;;;;;;5106165;27;61670;-78
2022/08/17 00:29:04;;;;;;;;;14.00;13.25;;;;;;;;5106126;27;61976;-78
2022/08/17 00:31:30;;;;;;;;;16.75;12.75;;;;;;;;5104926;27;61805;-78
2022/08/17 00:33:55;;;;;;;;;13.25;9.00;;;;;;;;5105212;27;61822;-79
2022/08/17 00:36:22;;;;;;;;;17.50;14.50;;;;;;;;5105865;27;61815;-78
2022/08/17 00:38:48;;;;;;;;;14.25;9.50;;;;;;;;5105729;27;61749;-78
2022/08/17 00:41:16;;;;;;;;;18.00;12.25;;;;;;;;5105923;27;61912;-78
2022/08/17 00:43:49;;;;;;;;;14.50;13.25;;;;;;;;5105185;27;61986;-78
2022/08/17 00:46:20;;;;;;;;;16.50;13.25;;;;;;;;5105724;27;61911;-78
2022/08/17 00:48:45;;;;;;;;;16.00;11.50;;;;;;;;5103995;27;61765;-78
2022/08/17 00:51:13;;;;;;;;;13.75;12.50;;;;;;;;5105570;27;61965;-78
2022/08/17 00:53:41;;;;;;;;;14.00;14.00;;;;;;;;5103321;27;64965;-79
2022/08/17 00:56:07;;;;;;;;;11.75;11.75;;;;;;;;5105539;27;62089;-78
2022/08/17 00:58:34;;;;;;;;;19.00;15.00;;;;;;;;5104292;27;61918;-78
2022/08/17 01:01:00;;;;;;;;;15.75;13.25;;;;;;;;5105792;27;61917;-78
2022/08/17 01:03:26;;;;;;;;;17.50;15.00;;;;;;;;5103403;27;63623;-78
2022/08/17 01:05:53;;;;;;;;;19.50;18.00;;;;;;;;5104966;27;62158;-78
2022/08/17 01:08:21;;;;;;;;;24.75;16.50;;;;;;;;5105812;27;61764;-78
2022/08/17 01:10:47;;;;;;;;;18.75;16.25;;;;;;;;5105363;27;62000;-78
2022/08/17 01:13:14;;;;;;;;;18.50;16.25;;;;;;;;5104520;27;62958;-78
2022/08/17 01:15:41;;;;;;;;;16.75;15.25;;;;;;;;5105601;27;61837;-78
2022/08/17 01:18:09;;;;;;;;;15.50;12.25;;;;;;;;5104060;27;61812;-78
2022/08/17 01:20:36;;;;;;;;;19.00;14.00;;;;;;;;5105135;27;61978;-78
2022/08/17 01:23:02;;;;;;;;;18.25;17.50;;;;;;;;5102838;27;64905;-78
2022/08/17 01:25:29;;;;;;;;;19.75;16.00;;;;;;;;5104460;27;61794;-78
2022/08/17 01:27:54;;;;;;;;;18.50;14.75;;;;;;;;5105080;27;61865;-78
2022/08/17 01:30:20;;;;;;;;;16.00;13.75;;;;;;;;5105366;27;62196;-78
2022/08/17 01:32:45;;;;;;;;;16.00;14.25;;;;;;;;5104408;27;62042;-78
2022/08/17 01:35:10;;;;;;;;;18.50;16.50;;;;;;;;5104850;27;61782;-78
2022/08/17 01:37:37;;;;;;;;;20.25;15.75;;;;;;;;5105171;27;61837;-78
2022/08/17 01:40:23;;;;;;;;;14.00;13.00;;;;;;;;5104836;27;61917;-78
2022/08/17 01:42:54;;;;;;;;;14.50;13.25;;;;;;;;5091989;27;61968;-78
2022/08/17 01:45:22;;;;;;;;;15.75;14.00;;;;;;;;5101121;27;61853;-78
2022/08/17 01:47:48;;;;;;;;;16.00;12.75;;;;;;;;5102979;27;61812;-78
2022/08/17 01:50:15;;;;;;;;;17.75;13.50;;;;;;;;5105081;27;61802;-78
2022/08/17 01:52:44;;;;;;;;;21.25;18.00;;;;;;;;5103802;27;63139;-78
2022/08/17 01:55:11;;;;;;;;;16.50;13.75;;;;;;;;5104002;27;61812;-78
2022/08/17 01:57:37;;;;;;;;;18.25;16.00;;;;;;;;5104899;27;61761;-78
2022/08/17 02:00:04;;;;;;;;;13.50;13.25;;;;;;;;5104593;27;61776;-78
2022/08/17 02:02:29;;;;;;;;;16.00;15.25;;;;;;;;5103577;27;61737;-78
2022/08/17 02:04:55;;;;;;;;;16.25;14.50;;;;;;;;5104300;27;62046;-78
2022/08/17 02:07:20;;;;;;;;;11.50;10.00;;;;;;;;5104593;27;61888;-78
2022/08/17 02:09:45;;;;;;;;;20.00;16.75;;;;;;;;5104467;27;61691;-78
2022/08/17 02:12:10;;;;;;;;;16.75;15.00;;;;;;;;5103983;27;62858;-78
2022/08/17 02:14:36;;;;;;;;;15.50;14.50;;;;;;;;5104082;27;61705;-78
2022/08/17 02:17:01;;;;;;;;;19.50;16.25;;;;;;;;5102631;27;61767;-78
2022/08/17 02:19:26;;;;;;;;;16.00;14.75;;;;;;;;5104781;27;61683;-78
2022/08/17 02:21:52;;;;;;;;;23.00;13.00;;;;;;;;5102381;27;63961;-78
2022/08/17 02:24:20;;;;;;;;;18.00;14.00;;;;;;;;5103099;27;61985;-78
2022/08/17 02:26:45;;;;;;;;;17.00;14.00;;;;;;;;5104323;27;61793;-78
2022/08/17 02:29:13;;;;;;;;;16.25;16.25;;;;;;;;5102946;27;62017;-78
2022/08/17 02:31:38;;;;;;;;;20.25;14.25;;;;;;;;5103307;27;62077;-78
2022/08/17 02:34:05;;;;;;;;;13.00;13.00;;;;;;;;5103834;27;61690;-78
2022/08/17 02:36:31;;;;;;;;;15.00;12.25;;;;;;;;5104149;27;61823;-77
2022/08/17 02:38:57;;;;;;;;;16.25;13.00;;;;;;;;5104226;27;62031;-78
2022/08/17 02:41:22;;;;;;;;;14.25;11.25;;;;;;;;5102317;27;62111;-78
2022/08/17 02:43:47;;;;;;;;;15.75;12.00;;;;;;;;5102167;27;61945;-78
2022/08/17 02:46:13;;;;;;;;;15.25;12.25;;;;;;;;5103475;27;61706;-78
2022/08/17 02:48:38;;;;;;;;;13.00;12.00;;;;;;;;5102732;27;62185;-78
2022/08/17 02:51:04;;;;;;;;;19.75;14.25;;;;;;;;5103052;27;61933;-78
2022/08/17 02:53:29;;;;;;;;;17.25;13.00;;;;;;;;5103214;27;61884;-78
2022/08/17 02:55:55;;;;;;;;;11.50;9.50;;;;;;;;5102275;27;62473;-78
2022/08/17 02:58:20;;;;;;;;;14.75;11.00;;;;;;;;5102642;27;62052;-78
2022/08/17 03:00:47;;;;;;;;;9.50;9.00;;;;;;;;5102716;27;63032;-78
2022/08/17 03:03:17;;;;;;;;;17.50;13.00;;;;;;;;5102085;27;61970;-79
2022/08/17 03:05:43;;;;;;;;;14.75;11.75;;;;;;;;5103667;27;61668;-78
2022/08/17 03:08:09;;;;;;;;;18.25;10.25;;;;;;;;5103633;27;62129;-78
2022/08/17 03:10:34;;;;;;;;;11.75;11.50;;;;;;;;5101078;27;65000;-78
2022/08/17 03:13:00;;;;;;;;;13.75;9.75;;;;;;;;5102037;27;61780;-78
2022/08/17 03:15:27;;;;;;;;;14.75;13.00;;;;;;;;5101756;27;62018;-78
2022/08/17 03:17:53;;;;;;;;;11.00;9.00;;;;;;;;5102412;27;62133;-78
2022/08/17 03:20:19;;;;;;;;;15.75;12.75;;;;;;;;5102964;27;63072;-78
2022/08/17 03:22:47;;;;;;;;;12.75;11.50;;;;;;;;5103263;27;61749;-78
2022/08/17 03:25:14;;;;;;;;;12.75;12.75;;;;;;;;5101020;27;61744;-78
2022/08/17 03:27:39;;;;;;;;;11.75;11.75;;;;;;;;5103545;27;61694;-78
2022/08/17 03:30:05;;;;;;;;;16.25;11.00;;;;;;;;5100781;27;63620;-78
2022/08/17 03:32:36;;;;;;;;;16.75;13.25;;;;;;;;5102004;27;61741;-78
2022/08/17 03:35:01;;;;;;;;;13.00;12.00;;;;;;;;5101771;27;61951;-78
2022/08/17 03:37:27;;;;;;;;;11.50;11.50;;;;;;;;5103158;27;62385;-78
2022/08/17 03:39:53;;;;;;;;;13.50;11.25;;;;;;;;5101095;27;64745;-78
2022/08/17 03:42:20;;;;;;;;;13.25;13.25;;;;;;;;5102958;27;62105;-78
2022/08/17 03:44:49;;;;;;;;;9.75;9.00;;;;;;;;5102454;27;61958;-78
2022/08/17 03:58:11;;;;;;;;;19.25;14.50;;;;;;;;5106322;27;61921;-78
2022/08/17 04:00:36;;;;;;;;;17.25;16.50;;;;;;;;5104674;27;64445;-78
2022/08/17 04:03:02;;;;;;;;;12.50;12.50;;;;;;;;5104903;27;61947;-78
2022/08/17 04:05:28;;;;;;;;;13.25;12.25;;;;;;;;5106568;27;61861;-78
2022/08/17 04:07:54;;;;;;;;;16.25;15.25;;;;;;;;5106664;27;61884;-78
2022/08/17 04:10:19;;;;;;;;;12.75;11.50;;;;;;;;5103805;27;63631;-78
2022/08/17 04:12:51;;;;;;;;;19.00;10.75;;;;;;;;5104721;27;61750;-78
2022/08/17 04:15:17;;;;;;;;;13.50;11.75;;;;;;;;5106204;27;61744;-78
2022/08/17 04:17:43;;;;;;;;;12.50;11.75;;;;;;;;5105100;27;62169;-78
2022/08/17 04:20:09;;;;;;;;;14.50;13.50;;;;;;;;5105859;27;61784;-78
2022/08/17 04:22:34;;;;;;;;;16.25;13.50;;;;;;;;5104747;27;61788;-78
2022/08/17 04:25:03;;;;;;;;;14.75;13.75;;;;;;;;5105266;27;61701;-78
2022/08/17 04:27:28;;;;;;;;;13.75;11.00;;;;;;;;5104366;27;62085;-78
2022/08/17 04:29:54;;;;;;;;;13.50;10.75;;;;;;;;5105449;27;61908;-78
2022/08/17 04:32:20;;;;;;;;;12.50;12.50;;;;;;;;5104560;27;61752;-78
2022/08/17 04:34:45;;;;;;;;;12.25;9.75;;;;;;;;5106308;27;61867;-78
2022/08/17 04:37:10;;;;;;;;;15.25;11.50;;;;;;;;5104840;27;61809;-78
2022/08/17 04:39:36;;;;;;;;;16.50;14.00;;;;;;;;5104997;27;61802;-78
2022/08/17 04:42:15;;;;;;;;;12.50;11.25;;;;;;;;5105603;27;61805;-78
2022/08/17 04:44:40;;;;;;;;;14.00;11.50;;;;;;;;5103179;27;61666;-79
2022/08/17 04:47:06;;;;;;;;;18.75;13.75;;;;;;;;5104776;27;62173;-78
2022/08/17 04:49:31;;;;;;;;;14.00;12.50;;;;;;;;5105203;27;61816;-78
2022/08/17 04:51:56;;;;;;;;;11.75;11.75;;;;;;;;5104380;27;61788;-78
2022/08/17 04:54:22;;;;;;;;;15.00;12.25;;;;;;;;5103522;27;61695;-78
2022/08/17 04:56:47;;;;;;;;;13.75;12.25;;;;;;;;5103954;27;61715;-78
2022/08/17 04:59:17;;;;;;;;;14.00;10.25;;;;;;;;5105371;27;62086;-78
2022/08/17 05:01:44;;;;;;;;;16.25;12.50;;;;;;;;5104407;27;61757;-78
2022/08/17 05:04:16;;;;;;;;;11.00;11.00;;;;;;;;5104249;27;61972;-78
2022/08/17 05:06:42;;;;;;;;;13.50;11.75;;;;;;;;5104057;27;61831;-78
2022/08/17 05:09:07;;;;;;;;;13.50;13.00;;;;;;;;5103500;27;63329;-78
2022/08/17 05:11:33;;;;;;;;;17.00;15.75;;;;;;;;5103150;27;61890;-78
2022/08/17 05:13:58;;;;;;;;;16.25;15.25;;;;;;;;5105621;27;61812;-78
2022/08/17 05:16:25;;;;;;;;;22.75;17.00;;;;;;;;5105728;27;61743;-79
2022/08/17 05:18:50;;;;;;;;;18.75;12.75;;;;;;;;5104218;27;62000;-76
2022/08/17 05:21:16;;;;;;;;;13.25;12.25;;;;;;;;5105350;27;61708;-79
2022/08/17 05:23:41;;;;;;;;;17.75;14.25;;;;;;;;5104796;27;61650;-78
2022/08/17 05:26:07;;;;;;;;;14.25;14.25;;;;;;;;5103305;27;62005;-78
2022/08/17 05:28:32;;;;;;;;;19.25;15.50;;;;;;;;5103243;27;63595;-82
2022/08/17 05:30:58;;;;;;;;;16.75;15.25;;;;;;;;5105445;27;61694;-87
2022/08/17 05:33:25;;;;;;;;;19.25;12.25;;;;;;;;5103976;27;61756;-81
2022/08/17 05:35:52;;;;;;;;;15.75;13.75;;;;;;;;5104065;27;62066;-83
2022/08/17 05:38:18;;;;;;;;;15.50;12.00;;;;;;;;5102883;27;63543;-82
2022/08/17 05:40:44;;;;;;;;;16.50;12.75;;;;;;;;5097432;27;62088;-86
2022/08/17 05:43:11;;;;;;;;;17.50;13.50;;;;;;;;5102629;27;61798;-85
2022/08/17 05:45:43;;;;;;;;;20.75;16.00;;;;;;;;5101181;27;61905;-85
2022/08/17 05:48:09;;;;;;;;;18.25;15.00;;;;;;;;5103775;27;61796;-86
2022/08/17 05:50:48;;;;;;;;;16.25;16.25;;;;;;;;5103003;27;62076;-83
2022/08/17 05:53:16;;;;;;;;;18.75;17.25;;;;;;;;5102942;27;61917;-82
2022/08/17 05:56:00;;;;;;;;;20.00;15.50;;;;;;;;5100371;27;61678;-79
2022/08/17 05:58:44;;;;;;;;;19.00;16.50;;;;;;;;5082134;28;64678;-77
2022/08/17 06:01:30;;;;;;;;;14.50;12.50;;;;;;;;5087066;27;61851;-78
2022/08/17 06:04:14;;;;;;;;;15.25;14.00;;;;;;;;5103115;27;61955;-78
2022/08/17 06:06:41;;;;;;;;;19.25;15.00;;;;;;;;5102949;27;61764;-78
2022/08/17 06:09:17;;;;;;;;;20.00;17.00;;;;;;;;5102529;27;62101;-78
2022/08/17 06:11:50;;;;;;;;;19.00;19.00;;;;;;;;5103168;27;61990;-80
2022/08/17 06:14:42;;;;;;;;;17.00;14.00;;;;;;;;5102139;27;61813;-79
2022/08/17 06:17:11;;;;;;;;;16.25;14.00;;;;;;;;5097866;27;62389;-79
2022/08/17 06:19:40;;;;;;;;;16.75;15.75;;;;;;;;5103223;27;61918;-79
2022/08/17 06:22:08;;;;;;;;;16.25;15.00;;;;;;;;5103328;27;61652;-80
2022/08/17 06:24:33;;;;;;;;;15.25;14.25;;;;;;;;5099834;27;61841;-79
2022/08/17 06:27:06;;;;;;;;;17.50;16.25;;;;;;;;5104091;27;61931;-80
2022/08/17 06:29:36;;;;;;;;;16.75;15.75;;;;;;;;5100142;27;63136;-80
2022/08/17 06:32:01;;;;;;;;;19.50;16.00;;;;;;;;5102273;27;61931;-79
2022/08/17 06:34:27;;;;;;;;;15.25;14.25;;;;;;;;5102466;27;61870;-79
2022/08/17 06:37:04;;;;;;;;;18.00;17.00;;;;;;;;5102450;27;62052;-79
2022/08/17 06:39:39;;;;;;;;;16.75;14.50;;;;;;;;5097036;27;63819;-79
2022/08/17 06:42:20;;;;;;;;;13.50;13.50;;;;;;;;5083429;28;61910;-78
2022/08/17 06:44:49;;;;;;;;;14.50;13.00;;;;;;;;5095767;27;61989;-79
2022/08/17 06:47:22;;;;;;;;;16.00;13.25;;;;;;;;5103647;27;61722;-78
2022/08/17 06:50:01;;;;;;;;;14.50;13.25;;;;;;;;5101000;27;65202;-78
2022/08/17 06:52:30;;;;;;;;;19.50;15.25;;;;;;;;5103436;27;61860;-78
2022/08/17 06:55:05;;;;;;;;;18.50;12.75;;;;;;;;5101046;27;61830;-78
2022/08/17 06:57:34;;;;;;;;;17.00;15.50;;;;;;;;5102333;27;61781;-78
2022/08/17 06:59:59;;;;;;;;;20.00;17.50;;;;;;;;5101132;27;63852;-79
2022/08/17 07:02:35;;;;;;;;;13.25;12.75;;;;;;;;5102545;27;61938;-78
2022/08/17 07:05:01;;;;;;;;;21.00;16.00;;;;;;;;5101666;27;61856;-78
2022/08/17 07:10:10;;;;;;;;;16.50;14.00;;;;;;;;5101047;27;62413;-78
2022/08/17 07:12:39;;;;;;;;;14.75;10.75;;;;;;;;5101391;27;63129;-78
2022/08/17 07:15:25;;;;;;;;;15.00;13.25;;;;;;;;5102039;27;61823;-78
2022/08/17 07:17:51;;;;;;;;;15.75;13.50;;;;;;;;5102326;27;61772;-78
2022/08/17 07:20:21;;;;;;;;;14.00;14.00;;;;;;;;5102535;27;61766;-79
2022/08/17 07:22:46;;;;;;;;;18.50;16.00;;;;;;;;5101278;27;61768;-78
2022/08/17 07:25:13;;;;;;;;;17.25;14.00;;;;;;;;5102151;27;61794;-78
2022/08/17 07:27:49;;;;;;;;;12.00;10.25;;;;;;;;5101650;27;62286;-78
2022/08/17 07:30:26;;;;;;;;;20.25;15.00;;;;;;;;5101931;27;62792;-79
2022/08/17 07:32:57;;;;;;;;;16.25;14.75;;;;;;;;5102849;27;62216;-79
2022/08/17 07:35:28;;;;;;;;;15.50;13.50;;;;;;;;5102239;27;61848;-79
2022/08/17 07:38:13;;;;;;;;;15.00;15.00;;;;;;;;5101880;27;62221;-79
2022/08/17 07:40:47;;;;;;;;;16.50;14.25;;;;;;;;5097199;27;63752;-79
2022/08/17 07:43:15;;;;;;;;;17.25;15.25;;;;;;;;5099526;27;61903;-79
2022/08/17 07:48:35;;;;;;;;;15.25;11.75;;;;;;;;5102695;27;61906;-79
2022/08/17 07:51:00;;;;;;;;;17.75;15.50;;;;;;;;5100883;27;62808;-79
2022/08/17 07:53:27;;;;;;;;;13.75;12.00;;;;;;;;5101534;27;61912;-79
2022/08/17 07:55:53;;;;;;;;;13.75;13.25;;;;;;;;5098461;27;61919;-78
2022/08/17 07:58:20;;;;;;;;;14.00;13.00;;;;;;;;5103496;27;61976;-78
2022/08/17 08:00:45;;;;;;;;;12.25;8.50;;;;;;;;5100562;27;63828;-78
2022/08/17 08:03:20;;;;;;;;;12.00;10.25;;;;;;;;5102776;27;61896;-78
2022/08/17 08:05:51;;;;;;;;;19.50;12.00;;;;;;;;5101076;27;61872;-78
2022/08/17 08:08:41;;;;;;;;;15.75;14.25;;;;;;;;5102853;27;61701;-78
2022/08/17 08:11:11;;;;;;;;;16.50;12.50;;;;;;;;5101754;27;61874;-78
2022/08/17 08:13:42;;;;;;;;;16.50;11.25;;;;;;;;5102353;27;61825;-78
2022/08/17 08:16:26;;;;;;;;;14.50;11.00;;;;;;;;5099933;27;61923;-79
2022/08/17 08:18:56;;;;;;;;;10.75;9.00;;;;;;;;5100181;27;61857;-78
2022/08/17 08:21:32;;;;;;;;;13.75;10.75;;;;;;;;5099729;27;63725;-78
2022/08/17 08:24:09;;;;;;;;;11.50;10.75;;;;;;;;5098377;27;61760;-78
2022/08/17 08:27:06;;;;;;;;;13.75;10.50;;;;;;;;5099458;27;61950;-78
2022/08/17 08:29:57;;;;;;;;;14.75;11.00;;;;;;;;5101036;27;61845;-78
2022/08/17 08:32:29;;;;;;;;;15.25;12.75;;;;;;;;5098728;27;62259;-78
2022/08/17 08:35:08;;;;;;;;;14.00;11.75;;;;;;;;5100916;27;61732;-78
2022/08/17 08:38:04;;;;;;;;;21.75;18.25;;;;;;;;5099820;27;61907;-79
2022/08/17 08:40:48;;;;;;;;;13.25;12.00;;;;;;;;5013152;28;62030;-78
2022/08/17 08:43:16;;;;;;;;;14.75;14.75;;;;;;;;5021436;28;62978;-78
2022/08/17 08:45:50;;;;;;;;;17.00;14.50;;;;;;;;5019859;28;62160;-79
2022/08/17 08:48:34;;;;;;;;;14.50;14.00;;;;;;;;5040582;28;62111;-78
2022/08/17 08:51:18;;;;;;;;;21.00;15.75;;;;;;;;5024518;28;61775;-78
2022/08/17 08:53:50;;;;;;;;;14.00;12.25;;;;;;;;5022345;28;63473;-78
2022/08/17 08:56:16;;;;;;;;;13.75;10.50;;;;;;;;5024267;28;61747;-78
2022/08/17 08:58:53;;;;;;;;;13.50;13.50;;;;;;;;5041672;28;62011;-78
2022/08/17 09:01:47;;;;;;;;;13.00;11.75;;;;;;;;5024890;28;62060;-78
2022/08/17 09:04:18;;;;;;;;;12.25;11.00;;;;;;;;5000939;28;64029;-78
2022/08/17 09:06:50;;;;;;;;;14.25;13.50;;;;;;;;4990204;28;62201;-78
2022/08/17 09:09:20;;;;;;;;;16.50;14.00;;;;;;;;4981789;28;61768;-78
2022/08/17 09:12:01;;;;;;;;;18.50;12.75;;;;;;;;4982421;28;62114;-78
2022/08/17 09:14:33;;;;;;;;;18.75;15.75;;;;;;;;5012455;28;63973;-78
2022/08/17 09:17:01;;;;;;;;;14.75;11.50;;;;;;;;5023333;28;61864;-78
2022/08/17 09:19:32;;;;;;;;;17.50;14.50;;;;;;;;5034762;28;62188;-81
2022/08/17 09:22:06;;;;;;;;;14.75;12.00;;;;;;;;5046868;28;62076;-80
2022/08/17 09:24:38;;;;;;;;;16.50;12.00;;;;;;;;5050680;28;63655;-80
2022/08/17 09:27:13;;;;;;;;;17.00;16.50;;;;;;;;5049212;28;62015;-80
2022/08/17 09:29:40;;;;;;;;;16.50;14.00;;;;;;;;5065003;28;61793;-79
2022/08/17 09:32:13;;;;;;;;;12.50;12.50;;;;;;;;5052417;28;62182;-80
2022/08/17 09:34:42;;;;;;;;;13.50;12.00;;;;;;;;5050148;28;63561;-79
2022/08/17 09:37:10;;;;;;;;;15.25;11.75;;;;;;;;5033757;28;62693;-79
2022/08/17 09:39:40;;;;;;;;;13.00;13.00;;;;;;;;5051552;27;62055;-79
2022/08/17 09:42:12;;;;;;;;;14.00;14.00;;;;;;;;5104171;27;62157;-78
2022/08/17 09:44:38;;;;;;;;;12.25;11.50;;;;;;;;5099068;27;61882;-77
2022/08/17 09:47:22;;;;;;;;;15.00;14.25;;;;;;;;5102406;27;61945;-77
2022/08/17 09:49:52;;;;;;;;;12.00;12.00;;;;;;;;5101943;27;61898;-77
2022/08/17 09:52:19;;;;;;;;;14.00;13.25;;;;;;;;5101587;27;61678;-78
2022/08/17 09:54:44;;;;;;;;;14.25;13.75;;;;;;;;5101236;27;63787;-77
2022/08/17 09:57:21;;;;;;;;;13.25;13.00;;;;;;;;5103831;27;62037;-77
2022/08/17 10:00:17;;;;;;;;;19.25;15.25;;;;;;;;5103222;27;62217;-82
2022/08/17 10:03:01;;;;;;;;;14.25;12.25;;;;;;;;5085890;27;61945;-82
2022/08/17 10:05:30;;;;;;;;;19.75;16.50;;;;;;;;5102471;27;63604;-82
2022/08/17 10:08:01;;;;;;;;;16.25;13.25;;;;;;;;5102905;27;62034;-82
2022/08/17 10:10:42;;;;;;;;;16.50;15.50;;;;;;;;5104059;27;61944;-82
2022/08/17 10:13:18;;;;;;;;;16.75;15.50;;;;;;;;5103883;27;61856;-82
2022/08/17 10:15:47;;;;;;;;;14.25;14.25;;;;;;;;5103391;27;62685;-82
2022/08/17 10:18:26;;;;;;;;;13.75;13.00;;;;;;;;5103703;27;61714;-82
2022/08/17 10:26:11;;;;;;;;;15.75;13.00;;;;;;;;5103287;27;62107;-83
2022/08/17 10:26:32;;;;;;;;;15.75;14.50;;;;;;;;5103541;27;62012;-83
2022/08/17 10:29:00;;;;;;;;;21.50;16.25;;;;;;;;5103169;27;61935;-83
2022/08/17 10:31:37;;;;;;;;;13.25;12.25;;;;;;;;5102190;27;62062;-82
2022/08/17 10:34:16;;;;;;;;;22.25;18.00;;;;;;;;5104295;27;61906;-83
2022/08/17 10:36:49;;;;;;;;;14.75;13.50;;;;;;;;5102398;27;63813;-83
2022/08/17 10:39:14;;;;;;;;;14.50;14.25;;;;;;;;5103730;27;61763;-80
2022/08/17 10:41:43;;;;;;;;;19.75;15.50;;;;;;;;5083342;27;61852;-80
2022/08/17 10:44:22;;;;;;;;;16.25;15.00;;;;;;;;5100767;27;61875;-80
2022/08/17 10:47:06;;;;;;;;;16.50;14.25;;;;;;;;5102078;27;65041;-85
2022/08/17 10:49:35;;;;;;;;;19.25;15.00;;;;;;;;5102334;27;61703;-86
2022/08/17 10:52:22;;;;;;;;;22.25;14.25;;;;;;;;5101693;27;61772;-79
2022/08/17 10:55:06;;;;;;;;;13.75;13.00;;;;;;;;5091795;27;64176;-80
2022/08/17 10:57:40;;;;;;;;;14.75;11.50;;;;;;;;5103149;27;62815;-84
2022/08/17 11:00:17;;;;;;;;;20.50;15.75;;;;;;;;5103215;27;61844;-81
2022/08/17 11:02:50;;;;;;;;;15.00;12.00;;;;;;;;5101835;27;61883;-79
2022/08/17 11:05:26;;;;;;;;;17.00;14.33;;;;;;;;5102024;27;61888;-80
2022/08/17 11:07:57;;;;;;;;;23.00;17.00;;;;;;;;5102570;27;62166;-79
2022/08/17 11:10:41;;;;;;;;;17.00;14.00;;;;;;;;5102442;27;61744;-80
2022/08/17 11:13:20;;;;;;;;;18.00;13.25;;;;;;;;5101620;27;61855;-82
2022/08/17 11:15:51;;;;;;;;;14.00;14.00;;;;;;;;5102231;27;61886;-81
2022/08/17 11:18:26;;;;;;;;;22.75;17.00;;;;;;;;5102645;27;62847;-82
2022/08/17 11:20:54;;;;;;;;;14.00;13.75;;;;;;;;5103486;27;61738;-81
2022/08/17 11:23:26;;;;;;;;;16.00;14.00;;;;;;;;5102911;27;61902;-79
2022/08/17 11:25:54;;;;;;;;;18.75;15.50;;;;;;;;5103103;27;61829;-83
2022/08/17 11:28:19;;;;;;;;;17.75;16.75;;;;;;;;5100778;27;63844;-82
2022/08/17 11:30:47;;;;;;;;;19.00;16.50;;;;;;;;5103292;27;62116;-82
2022/08/17 11:33:27;;;;;;;;;16.75;16.25;;;;;;;;5102715;27;62093;-77
2022/08/17 11:35:59;;;;;;;;;15.00;13.25;;;;;;;;5101627;27;61972;-77
2022/08/17 11:38:31;;;;;;;;;19.25;12.75;;;;;;;;5098091;27;63679;-82
2022/08/17 11:41:14;;;;;;;;;13.33;13.33;;;;;;;;5100056;27;61987;-80
2022/08/17 11:43:52;;;;;;;;;18.67;17.00;;;;;;;;5101983;27;61653;-81
2022/08/17 11:46:23;;;;;;;;;21.00;17.00;;;;;;;;5103052;27;62059;-80
2022/08/17 11:51:54;;;;;;;;;20.67;17.00;;;;;;;;5101092;27;61864;-78
2022/08/17 11:54:28;;;;;;;;;17.00;16.25;;;;;;;;5100329;27;62018;-78
2022/08/17 11:56:53;;;;;;;;;17.67;14.67;;;;;;;;5100149;27;61884;-78
2022/08/17 11:59:46;;;;;;;;;15.67;15.67;;;;;;;;5100374;27;63753;-79
2022/08/17 12:02:29;;;;;;;;;15.67;13.33;;;;;;;;5098346;27;62017;-79
2022/08/17 12:05:13;;;;;;;;;15.33;12.00;;;;;;;;5097540;27;61838;-78
2022/08/17 12:07:50;;;;;;;;;25.67;18.00;;;;;;;;5098580;27;61816;-79
2022/08/17 12:10:20;;;;;;;;;22.67;17.33;;;;;;;;5098602;27;61894;-78
2022/08/17 12:12:47;;;;;;;;;16.00;15.33;;;;;;;;5100436;27;61759;-79
2022/08/17 12:15:16;;;;;;;;;16.33;14.00;;;;;;;;5101467;27;61792;-79
2022/08/17 12:17:49;;;;;;;;;20.67;16.67;;;;;;;;5104262;27;62177;-79
2022/08/17 12:20:21;;;;;;;;;17.00;14.33;;;;;;;;5103761;27;64039;-79
2022/08/17 12:23:02;;;;;;;;;16.33;14.00;;;;;;;;5105733;27;61717;-79
2022/08/17 12:25:32;;;;;;;;;16.33;16.33;;;;;;;;5102340;27;62077;-79
2022/08/17 12:27:58;;;;;;;;;25.00;16.00;;;;;;;;5103417;27;61683;-79
2022/08/17 12:30:23;;;;;;;;;14.33;11.33;;;;;;;;5104425;27;62774;-79
2022/08/17 12:32:49;;;;;;;;;18.00;14.33;;;;;;;;5104125;27;61822;-79
2022/08/17 12:35:34;;;;;;;;;13.33;12.33;;;;;;;;5101377;27;61727;-79
2022/08/17 12:38:00;;;;;;;;;14.00;14.00;;;;;;;;5105652;27;61992;-80
2022/08/17 12:40:27;;;;;;;;;19.00;16.00;;;;;;;;5101863;27;62030;-80
2022/08/17 12:43:12;;;;;;;;;13.00;13.00;;;;;;;;5103976;27;61933;-80
2022/08/17 12:45:38;;;;;;;;;13.00;13.00;;;;;;;;5110723;27;62025;-80
2022/08/17 12:48:06;;;;;;;;;16.67;14.00;;;;;;;;5103941;27;61864;-80
2022/08/17 12:50:32;;;;;;;;;14.33;12.33;;;;;;;;5102835;27;64480;-80
2022/08/17 12:52:58;;;;;;;;;14.33;14.00;;;;;;;;5103463;27;61821;-79
2022/08/17 12:55:24;;;;;;;;;17.67;15.33;;;;;;;;5103096;27;62561;-80
2022/08/17 12:57:52;;;;;;;;;18.00;14.00;;;;;;;;5104995;27;61772;-79
2022/08/17 13:00:26;;;;;;;;;15.00;15.00;;;;;;;;5102035;27;61906;-83
2022/08/17 13:02:53;;;;;;;;;18.00;14.00;;;;;;;;5103660;27;61745;-80
2022/08/17 13:05:26;;;;;;;;;14.00;13.67;;;;;;;;5105185;27;62126;-80
2022/08/17 13:07:53;;;;;;;;;17.00;14.33;;;;;;;;5104834;27;61803;-80
2022/08/17 13:10:24;;;;;;;;;15.33;13.00;;;;;;;;5103265;27;61884;-80
2022/08/17 13:12:51;;;;;;;;;14.00;14.00;;;;;;;;5103842;27;61755;-81
2022/08/17 13:15:31;;;;;;;;;13.00;11.33;;;;;;;;5104483;27;61828;-81
2022/08/17 13:18:00;;;;;;;;;13.67;10.67;;;;;;;;5105190;27;62035;-81
2022/08/17 13:20:25;;;;;;;;;15.00;13.00;;;;;;;;5104655;27;62090;-81
2022/08/17 13:22:56;;;;;;;;;14.67;12.00;;;;;;;;5103735;27;62022;-81
2022/08/17 13:25:22;;;;;;;;;12.67;9.00;;;;;;;;5103794;27;62471;-81
2022/08/17 13:27:49;;;;;;;;;11.33;9.00;;;;;;;;5104931;27;61726;-81
2022/08/17 13:30:19;;;;;;;;;12.33;11.67;;;;;;;;5104482;27;62007;-81
2022/08/17 13:32:47;;;;;;;;;9.33;8.00;;;;;;;;5103325;27;61835;-81
2022/08/17 13:35:31;;;;;;;;;10.67;10.67;;;;;;;;5103767;27;61814;-81
2022/08/17 13:37:58;;;;;;;;;9.67;9.00;;;;;;;;5104636;27;61740;-81
2022/08/17 13:40:43;;;;;;;;;10.00;9.00;;;;;;;;5101047;27;62935;-78
2022/08/17 13:43:09;;;;;;;;;12.67;10.67;;;;;;;;5102632;27;61808;-79
2022/08/17 13:45:36;;;;;;;;;12.33;10.00;;;;;;;;5102238;27;62887;-78
2022/08/17 13:48:07;;;;;;;;;13.00;10.67;;;;;;;;5103654;27;61733;-78
2022/08/17 13:50:37;;;;;;;;;9.67;9.67;;;;;;;;5102816;27;65114;-78
2022/08/17 13:53:14;;;;;;;;;13.00;10.33;;;;;;;;5102611;27;61977;-78
2022/08/17 13:55:45;;;;;;;;;10.00;8.00;;;;;;;;5104410;27;61997;-78
2022/08/17 13:58:11;;;;;;;;;9.33;8.00;;;;;;;;5104875;27;62034;-77
2022/08/17 14:00:36;;;;;;;;;11.67;11.00;;;;;;;;5103790;27;61715;-79
2022/08/17 14:03:02;;;;;;;;;8.00;8.00;;;;;;;;5104842;27;61834;-77
2022/08/17 14:05:29;;;;;;;;;11.67;11.00;;;;;;;;5104696;27;61738;-77
2022/08/17 14:07:56;;;;;;;;;10.33;10.00;;;;;;;;5102944;27;61910;-78
2022/08/17 14:10:21;;;;;;;;;13.67;10.67;;;;;;;;5103337;27;62211;-77
2022/08/17 14:12:48;;;;;;;;;12.00;12.00;;;;;;;;5103813;27;62028;-77
2022/08/17 14:15:14;;;;;;;;;9.00;9.00;;;;;;;;5104040;27;61899;-78
2022/08/17 14:17:40;;;;;;;;;9.33;9.00;;;;;;;;5103711;27;61711;-77
2022/08/17 14:20:08;;;;;;;;;9.00;8.00;;;;;;;;5101635;27;62699;-77
2022/08/17 14:22:34;;;;;;;;;9.67;9.67;;;;;;;;5099402;27;61999;-77
2022/08/17 14:25:02;;;;;;;;;14.67;12.67;;;;;;;;5102932;27;61878;-77
2022/08/17 14:27:30;;;;;;;;;12.67;12.00;;;;;;;;5102541;27;62053;-77
2022/08/17 14:29:56;;;;;;;;;12.67;10.33;;;;;;;;5102609;27;62406;-77
2022/08/17 14:32:24;;;;;;;;;12.67;10.00;;;;;;;;5103452;27;61951;-79
2022/08/17 14:34:51;;;;;;;;;10.00;10.00;;;;;;;;5103461;27;61967;-79
2022/08/17 14:37:19;;;;;;;;;9.67;9.67;;;;;;;;5102731;27;61774;-80
2022/08/17 14:39:45;;;;;;;;;13.00;11.00;;;;;;;;5099847;27;64087;-79
2022/08/17 14:42:10;;;;;;;;;12.67;11.33;;;;;;;;5101393;27;62071;-80
2022/08/17 14:44:39;;;;;;;;;9.67;9.67;;;;;;;;5103322;27;61678;-79
2022/08/17 14:47:05;;;;;;;;;12.67;11.00;;;;;;;;5103657;27;61678;-80
2022/08/17 14:49:30;;;;;;;;;7.67;6.67;;;;;;;;5102056;27;63850;-80
2022/08/17 14:51:57;;;;;;;;;11.67;10.00;;;;;;;;5102893;27;62002;-80
2022/08/17 14:54:23;;;;;;;;;14.33;9.67;;;;;;;;5101661;27;61764;-80
2022/08/17 14:56:48;;;;;;;;;8.67;8.00;;;;;;;;5102044;27;61886;-80
2022/08/17 14:59:14;;;;;;;;;10.33;8.00;;;;;;;;5103304;27;62884;-80